Time;durP1;ratioP1;P1;durP2;ratioP2;P2;SDS_P1;SDS_P2;PMS_P1;PMS_P2;Temp;Humidity;BMP_temperature;BMP_pressure;BME280_temperature;BME280_humidity;BME280_pressure;Samples;Min_cycle;Max_cycle;Signal;HPM_P1;HPM_P2
2021/02/01 00:02:01;;;;;;;1.8;1.2;;;;;;;;;;;;;
2021/02/01 00:04:28;;;;;;;2.7;1.1;;;;;;;;;;;;;
2021/02/01 00:06:53;;;;;;;2.8;2;;;;;;;;;;;;;
2021/02/01 00:09:20;;;;;;;2.6;1.4;;;;;;;;;;;;;
2021/02/01 00:11:45;;;;;;;3;2.2;;;;;;;;;;;;;
2021/02/01 00:14:12;;;;;;;3.8;1.6;;;;;;;;;;;;;
2021/02/01 00:16:37;;;;;;;1.6;1.3;;;;;;;;;;;;;
2021/02/01 00:19:02;;;;;;;3.4;1.9;;;;;;;;;;;;;
2021/02/01 00:21:28;;;;;;;2.8;1.9;;;;;;;;;;;;;
2021/02/01 00:23:56;;;;;;;1.6;1.1;;;;;;;;;;;;;
2021/02/01 00:26:23;;;;;;;1.6;1.4;;;;;;;;;;;;;
2021/02/01 00:28:48;;;;;;;1.2;0.9;;;;;;;;;;;;;
2021/02/01 00:31:15;;;;;;;1.4;1;;;;;;;;;;;;;
2021/02/01 00:33:40;;;;;;;1.5;1.2;;;;;;;;;;;;;
2021/02/01 00:36:07;;;;;;;2.6;1.6;;;;;;;;;;;;;
2021/02/01 00:38:32;;;;;;;1.5;1.2;;;;;;;;;;;;;
2021/02/01 00:40:59;;;;;;;2.4;1.5;;;;;;;;;;;;;
2021/02/01 00:43:23;;;;;;;3.5;2.1;;;;;;;;;;;;;
2021/02/01 00:45:49;;;;;;;1.4;1.3;;;;;;;;;;;;;
2021/02/01 00:48:14;;;;;;;2.7;1.4;;;;;;;;;;;;;
2021/02/01 00:50:40;;;;;;;1.5;1.2;;;;;;;;;;;;;
2021/02/01 00:53:05;;;;;;;2.2;1.5;;;;;;;;;;;;;
2021/02/01 00:55:31;;;;;;;2.4;1.3;;;;;;;;;;;;;
2021/02/01 00:57:57;;;;;;;1.3;1.2;;;;;;;;;;;;;
2021/02/01 01:00:22;;;;;;;1.4;0.9;;;;;;;;;;;;;
2021/02/01 01:02:47;;;;;;;0.9;0.7;;;;;;;;;;;;;
2021/02/01 01:05:13;;;;;;;3.3;1.6;;;;;;;;;;;;;
2021/02/01 01:07:39;;;;;;;1.9;1.5;;;;;;;;;;;;;
2021/02/01 01:10:05;;;;;;;1.8;1.4;;;;;;;;;;;;;
2021/02/01 01:12:31;;;;;;;3.5;2.2;;;;;;;;;;;;;
2021/02/01 01:14:56;;;;;;;3.9;2;;;;;;;;;;;;;
2021/02/01 01:17:21;;;;;;;1.8;1.4;;;;;;;;;;;;;
2021/02/01 01:19:49;;;;;;;2.6;1.6;;;;;;;;;;;;;
2021/02/01 01:22:15;;;;;;;2.7;1.9;;;;;;;;;;;;;
2021/02/01 01:24:40;;;;;;;4.1;1.5;;;;;;;;;;;;;
2021/02/01 01:27:05;;;;;;;0.5;0.4;;;;;;;;;;;;;
2021/02/01 01:29:31;;;;;;;1.1;1;;;;;;;;;;;;;
2021/02/01 01:31:56;;;;;;;1.4;1;;;;;;;;;;;;;
2021/02/01 01:34:22;;;;;;;1;0.6;;;;;;;;;;;;;
2021/02/01 01:36:47;;;;;;;2.1;0.9;;;;;;;;;;;;;
2021/02/01 01:39:13;;;;;;;1;0.9;;;;;;;;;;;;;
2021/02/01 01:41:38;;;;;;;1.8;1.1;;;;;;;;;;;;;
2021/02/01 01:44:05;;;;;;;2.1;1.1;;;;;;;;;;;;;
2021/02/01 01:46:30;;;;;;;1.7;1.2;;;;;;;;;;;;;
2021/02/01 01:48:55;;;;;;;0.7;0.6;;;;;;;;;;;;;
2021/02/01 01:51:22;;;;;;;2.7;1.1;;;;;;;;;;;;;
2021/02/01 01:53:47;;;;;;;1.4;0.9;;;;;;;;;;;;;
2021/02/01 01:56:14;;;;;;;2.9;1.5;;;;;;;;;;;;;
2021/02/01 01:58:39;;;;;;;3.1;1.6;;;;;;;;;;;;;
2021/02/01 02:01:10;;;;;;;1.8;1.2;;;;;;;;;;;;;
2021/02/01 02:03:38;;;;;;;3;1.4;;;;;;;;;;;;;
2021/02/01 02:06:04;;;;;;;2;1.2;;;;;;;;;;;;;
2021/02/01 02:08:29;;;;;;;1.3;1.2;;;;;;;;;;;;;
2021/02/01 02:10:54;;;;;;;1.1;0.9;;;;;;;;;;;;;
2021/02/01 02:13:22;;;;;;;1.2;0.9;;;;;;;;;;;;;
2021/02/01 02:15:53;;;;;;;1.5;0.9;;;;;;;;;;;;;
2021/02/01 02:18:18;;;;;;;1.4;0.7;;;;;;;;;;;;;
2021/02/01 02:20:43;;;;;;;1.8;0.9;;;;;;;;;;;;;
2021/02/01 02:23:08;;;;;;;2;1.2;;;;;;;;;;;;;
2021/02/01 02:25:33;;;;;;;1.9;1.2;;;;;;;;;;;;;
2021/02/01 02:27:59;;;;;;;0.6;0.6;;;;;;;;;;;;;
2021/02/01 02:30:24;;;;;;;1.4;1.1;;;;;;;;;;;;;
2021/02/01 02:32:49;;;;;;;1.9;0.8;;;;;;;;;;;;;
2021/02/01 02:35:14;;;;;;;0.8;0.8;;;;;;;;;;;;;
2021/02/01 02:37:40;;;;;;;3.8;0.9;;;;;;;;;;;;;
2021/02/01 02:40:05;;;;;;;9.1;1.2;;;;;;;;;;;;;
2021/02/01 02:42:31;;;;;;;1.6;1;;;;;;;;;;;;;
2021/02/01 02:44:55;;;;;;;1.4;0.9;;;;;;;;;;;;;
2021/02/01 02:47:20;;;;;;;1.4;1;;;;;;;;;;;;;
2021/02/01 02:49:46;;;;;;;7.7;1.1;;;;;;;;;;;;;
2021/02/01 02:52:11;;;;;;;1.9;0.9;;;;;;;;;;;;;
2021/02/01 02:54:36;;;;;;;0.8;0.7;;;;;;;;;;;;;
2021/02/01 02:57:01;;;;;;;1.4;1.1;;;;;;;;;;;;;
2021/02/01 02:59:26;;;;;;;1.5;0.9;;;;;;;;;;;;;
2021/02/01 03:01:51;;;;;;;1.8;1.1;;;;;;;;;;;;;
2021/02/01 03:04:16;;;;;;;1.4;0.9;;;;;;;;;;;;;
2021/02/01 03:06:42;;;;;;;1.6;1;;;;;;;;;;;;;
2021/02/01 03:09:07;;;;;;;2.2;1.4;;;;;;;;;;;;;
2021/02/01 03:11:33;;;;;;;3.6;1;;;;;;;;;;;;;
2021/02/01 03:13:58;;;;;;;1;0.8;;;;;;;;;;;;;
2021/02/01 03:16:25;;;;;;;0.7;0.6;;;;;;;;;;;;;
2021/02/01 03:18:50;;;;;;;1.4;1.2;;;;;;;;;;;;;
2021/02/01 03:21:15;;;;;;;0.9;0.8;;;;;;;;;;;;;
2021/02/01 03:23:41;;;;;;;3.5;1.3;;;;;;;;;;;;;
2021/02/01 03:26:06;;;;;;;1.7;1.3;;;;;;;;;;;;;
2021/02/01 03:28:32;;;;;;;1.9;1.1;;;;;;;;;;;;;
2021/02/01 03:30:57;;;;;;;1.2;0.8;;;;;;;;;;;;;
2021/02/01 03:33:23;;;;;;;0.6;0.6;;;;;;;;;;;;;
2021/02/01 03:35:48;;;;;;;1.3;0.7;;;;;;;;;;;;;
2021/02/01 03:38:14;;;;;;;1;0.8;;;;;;;;;;;;;
2021/02/01 03:40:40;;;;;;;1.5;0.9;;;;;;;;;;;;;
2021/02/01 03:43:06;;;;;;;2.2;0.9;;;;;;;;;;;;;
2021/02/01 03:45:34;;;;;;;1.1;0.7;;;;;;;;;;;;;
2021/02/01 03:48:00;;;;;;;2.1;1.3;;;;;;;;;;;;;
2021/02/01 03:50:25;;;;;;;1;0.9;;;;;;;;;;;;;
2021/02/01 03:52:50;;;;;;;1.4;0.7;;;;;;;;;;;;;
2021/02/01 03:55:15;;;;;;;0.8;0.7;;;;;;;;;;;;;
2021/02/01 03:57:40;;;;;;;1.6;0.8;;;;;;;;;;;;;
2021/02/01 04:02:31;;;;;;;1.2;0.9;;;;;;;2.15;94.09375;915.166;;;;
2021/02/01 04:04:57;;;;;;;0.8;0.7;;;;;;;2.07;94.24414;915.1822;;;;
2021/02/01 04:07:24;;;;;;;1.2;0.9;;;;;;;1.93;95.01758;915.0952;;;;
2021/02/01 04:09:48;;;;;;;1.3;0.6;;;;;;;1.88;95.58887;915.1013;;;;
2021/02/01 04:12:15;;;;;;;0.8;0.7;;;;;;;1.81;96.17676;915.1253;;;;
2021/02/01 04:14:42;;;;;;;1;0.9;;;;;;;1.93;95.8457;915.1642;;;;
2021/02/01 04:17:07;;;;;;;0.5;0.5;;;;;;;1.93;95.16309;915.1508;;;;
2021/02/01 04:19:36;;;;;;;2.3;1.4;;;;;;;1.85;95.50293;915.1553;;;;
2021/02/01 04:22:07;;;;;;;1.6;1.2;;;;;;;1.9;95.53711;915.1703;;;;
2021/02/01 04:24:33;;;;;;;1.4;0.7;;;;;;;2.08;95.00684;915.1344;;;;
2021/02/01 04:27:00;;;;;;;1.3;1.2;;;;;;;2.16;94.44336;915.071;;;;
2021/02/01 04:29:25;;;;;;;2.3;1.1;;;;;;;2.18;93.78613;915.1786;;;;
2021/02/01 04:31:55;;;;;;;1.3;0.8;;;;;;;2.17;93.66113;915.0836;;;;
2021/02/01 04:34:24;;;;;;;1.1;0.8;;;;;;;2.21;93.45605;915.1735;;;;
2021/02/01 04:36:50;;;;;;;0.9;0.8;;;;;;;2.16;93.56934;915.0506;;;;
2021/02/01 04:39:16;;;;;;;0.9;0.9;;;;;;;2.21;93.45605;915.0966;;;;
2021/02/01 04:41:42;;;;;;;1.7;0.9;;;;;;;2.24;92.94727;915.1304;;;;
2021/02/01 04:44:10;;;;;;;1.3;0.8;;;;;;;2.16;93.07715;915.0341;;;;
2021/02/01 04:46:35;;;;;;;1.5;0.8;;;;;;;1.99;93.92383;915.0317;;;;
2021/02/01 04:49:00;;;;;;;0.9;0.8;;;;;;;2.08;93.8291;915.1163;;;;
2021/02/01 04:51:25;;;;;;;0.7;0.6;;;;;;;1.96;94.73438;915.0262;;;;
2021/02/01 04:53:50;;;;;;;1.8;0.8;;;;;;;2.16;94.74316;915.0499;;;;
2021/02/01 04:56:15;;;;;;;0.6;0.6;;;;;;;2.25;94.73145;915.07;;;;
2021/02/01 04:58:41;;;;;;;0.5;0.5;;;;;;;2.36;94.71094;914.9642;;;;
2021/02/01 05:01:07;;;;;;;1.4;0.7;;;;;;;2.52;94.5791;915.1046;;;;
2021/02/01 05:03:33;;;;;;;0.6;0.6;;;;;;;2.56;94.41895;915.0064;;;;
2021/02/01 05:06:00;;;;;;;1.5;0.7;;;;;;;2.52;94.65625;915.0983;;;;
2021/02/01 05:08:25;;;;;;;0.8;0.7;;;;;;;2.49;95.16504;915.1627;;;;
2021/02/01 05:11:01;;;;;;;2.7;1.6;;;;;;;2.48;94.54883;915.1523;;;;
2021/02/01 05:13:27;;;;;;;4.3;2.2;;;;;;;2.37;94.22266;915.21;;;;
2021/02/01 05:15:53;;;;;;;4.3;2.2;;;;;;;2.26;94.17383;915.0511;;;;
2021/02/01 05:18:18;;;;;;;5.3;2.2;;;;;;;2.18;94.7041;915.1982;;;;
2021/02/01 05:20:49;;;;;;;5.6;2.7;;;;;;;2.2;94.39746;915.1386;;;;
2021/02/01 05:23:18;;;;;;;5.4;1.5;;;;;;;2.19;94.9082;915.2885;;;;
2021/02/01 05:25:50;;;;;;;2.1;1;;;;;;;2.27;94.75781;915.2427;;;;
2021/02/01 05:28:15;;;;;;;2.5;1.3;;;;;;;2.46;94.22949;915.2466;;;;
2021/02/01 05:30:43;;;;;;;2.2;0.9;;;;;;;2.48;93.88574;915.2757;;;;
2021/02/01 05:33:11;;;;;;;0.9;0.9;;;;;;;2.47;93.95117;915.3212;;;;
2021/02/01 05:35:37;;;;;;;1.7;0.9;;;;;;;2.41;93.96191;915.3878;;;;
2021/02/01 05:38:05;;;;;;;2.2;1.4;;;;;;;2.22;94.7373;915.34;;;;
2021/02/01 05:40:30;;;;;;;1.4;1.1;;;;;;;2.34;94.88672;915.2916;;;;
2021/02/01 05:42:55;;;;;;;3.1;1.9;;;;;;;2.33;95.08594;915.4486;;;;
2021/02/01 05:45:25;;;;;;;2.3;1.9;;;;;;;2.34;95.27637;915.3653;;;;
2021/02/01 05:47:50;;;;;;;3.2;2.3;;;;;;;2.54;94.88379;915.5059;;;;
2021/02/01 05:50:16;;;;;;;3.8;2.4;;;;;;;2.52;94.55469;915.5019;;;;
2021/02/01 05:52:42;;;;;;;5.5;2.6;;;;;;;2.64;94.00977;915.5511;;;;
2021/02/01 05:55:15;;;;;;;4.7;2.4;;;;;;;2.66;93.5332;915.548;;;;
2021/02/01 05:57:40;;;;;;;3.2;2.3;;;;;;;2.57;93.5918;915.608;;;;
2021/02/01 06:00:05;;;;;;;3.7;2;;;;;;;2.7;93.24023;915.6809;;;;
2021/02/01 06:02:30;;;;;;;6.4;2.9;;;;;;;2.72;92.95313;915.6526;;;;
2021/02/01 06:04:55;;;;;;;3;1.4;;;;;;;2.81;93.07227;915.5352;;;;
2021/02/01 06:07:23;;;;;;;2.4;1.7;;;;;;;2.96;93.00488;915.6775;;;;
2021/02/01 06:09:48;;;;;;;2;1.2;;;;;;;3.05;92.62207;915.6221;;;;
2021/02/01 06:12:18;;;;;;;3.1;1.8;;;;;;;2.96;92.34277;915.7326;;;;
2021/02/01 06:14:43;;;;;;;2.7;1.2;;;;;;;2.71;92.80566;915.7264;;;;
2021/02/01 06:17:08;;;;;;;2.1;1.4;;;;;;;2.62;93.79297;915.7169;;;;
2021/02/01 06:19:36;;;;;;;1.9;1.2;;;;;;;2.65;94.11426;915.7342;;;;
2021/02/01 06:22:05;;;;;;;2.4;1.6;;;;;;;2.74;93.74219;915.8365;;;;
2021/02/01 06:24:33;;;;;;;4.5;2.1;;;;;;;2.78;93.69629;915.842;;;;
2021/02/01 06:27:01;;;;;;;3.8;1.7;;;;;;;2.95;93.26953;915.8912;;;;
2021/02/01 06:29:26;;;;;;;3.5;2.1;;;;;;;2.98;92.85352;915.9464;;;;
2021/02/01 06:31:59;;;;;;;2.4;1.7;;;;;;;2.93;92.72949;915.9802;;;;
2021/02/01 06:34:28;;;;;;;2.6;2;;;;;;;3.02;92.42383;915.9592;;;;
2021/02/01 06:36:53;;;;;;;5.9;2;;;;;;;3.08;92.2334;915.9947;;;;
2021/02/01 06:39:18;;;;;;;2.7;2;;;;;;;3.15;91.9707;915.9892;;;;
2021/02/01 06:41:44;;;;;;;9.5;4.4;;;;;;;3.24;91.68555;916.0352;;;;
2021/02/01 06:44:09;;;;;;;5.4;2.9;;;;;;;3.29;91.48145;916.1139;;;;
2021/02/01 06:46:35;;;;;;;3.6;2.4;;;;;;;3.24;91.35059;916.0603;;;;
2021/02/01 06:49:00;;;;;;;3.4;2.1;;;;;;;3.33;91.21289;916.165;;;;
2021/02/01 06:51:28;;;;;;;3.1;2;;;;;;;3.29;91.03418;916.1272;;;;
2021/02/01 06:53:54;;;;;;;3.4;2.1;;;;;;;3.41;90.76758;916.2431;;;;
2021/02/01 06:56:19;;;;;;;7.6;2.5;;;;;;;3.48;90.45703;916.2377;;;;
2021/02/01 06:58:44;;;;;;;2.5;1.8;;;;;;;3.5;90.57324;916.1959;;;;
2021/02/01 07:01:14;;;;;;;3.2;2.3;;;;;;;3.56;90.06836;916.24;;;;
2021/02/01 07:03:39;;;;;;;3.7;1.9;;;;;;;3.57;89.91504;916.1935;;;;
2021/02/01 07:06:04;;;;;;;2.3;1.4;;;;;;;3.56;89.94629;916.2188;;;;
2021/02/01 07:08:29;;;;;;;2.2;1.4;;;;;;;3.6;89.80859;916.2108;;;;
2021/02/01 07:11:00;;;;;;;2.8;1.7;;;;;;;3.71;89.5166;916.1992;;;;
2021/02/01 07:13:25;;;;;;;2.7;1.3;;;;;;;3.73;89.14941;916.2126;;;;
2021/02/01 07:15:58;;;;;;;1.8;1.6;;;;;;;3.71;89.08984;916.1442;;;;
2021/02/01 07:18:25;;;;;;;1.4;1.1;;;;;;;3.71;89.44922;916.2142;;;;
2021/02/01 07:20:53;;;;;;;2.3;1.2;;;;;;;3.76;89.35938;916.1315;;;;
2021/02/01 07:23:25;;;;;;;1.6;0.9;;;;;;;3.62;89.89258;916.2017;;;;
2021/02/01 07:25:58;;;;;;;0.8;0.7;;;;;;;3.48;90.82813;916.2219;;;;
2021/02/01 07:28:29;;;;;;;1.2;1;;;;;;;3.58;90.93945;916.2455;;;;
2021/02/01 07:30:57;;;;;;;0.8;0.7;;;;;;;3.73;90.67969;916.2715;;;;
2021/02/01 07:33:22;;;;;;;0.6;0.6;;;;;;;3.89;90.50098;916.1323;;;;
2021/02/01 07:35:48;;;;;;;2.3;1.1;;;;;;;3.94;90.01367;916.1881;;;;
2021/02/01 07:38:14;;;;;;;1;0.9;;;;;;;4;89.71387;916.1794;;;;
2021/02/01 07:40:44;;;;;;;1.8;1.1;;;;;;;3.97;89.66113;916.2219;;;;
2021/02/01 07:43:11;;;;;;;2;1.3;;;;;;;4.06;89.52344;916.1724;;;;
2021/02/01 07:45:36;;;;;;;1.7;1.4;;;;;;;4.09;89.46094;916.1889;;;;
2021/02/01 07:48:02;;;;;;;2;1.5;;;;;;;3.86;91.57227;916.178;;;;
2021/02/01 07:50:29;;;;;;;3.2;2;;;;;;;3.76;92.38281;916.192;;;;
2021/02/01 07:52:57;;;;;;;3.9;2.4;;;;;;;3.85;92.01953;916.123;;;;
2021/02/01 07:55:22;;;;;;;5.6;2.5;;;;;;;3.89;92.5;916.1316;;;;
2021/02/01 07:57:47;;;;;;;3.8;2.7;;;;;;;3.96;91.7959;916.144;;;;
2021/02/01 08:00:15;;;;;;;6.7;3.3;;;;;;;4.02;90.88574;916.1875;;;;
2021/02/01 08:02:41;;;;;;;5.2;3.3;;;;;;;4;90.37598;916.1234;;;;
2021/02/01 08:05:08;;;;;;;7;3.8;;;;;;;3.99;90.2168;916.0872;;;;
2021/02/01 08:07:38;;;;;;;7.2;3.7;;;;;;;3.9;90.43555;916.178;;;;
2021/02/01 08:10:05;;;;;;;5.5;3.6;;;;;;;3.9;90.24414;916.1764;;;;
2021/02/01 08:12:33;;;;;;;8.1;3.1;;;;;;;3.89;90.375;916.1945;;;;
2021/02/01 08:14:55;;;;;;;6;2.8;;;;;;;3.92;90.4502;916.1646;;;;
2021/02/01 08:17:20;;;;;;;6.7;3.5;;;;;;;3.99;90.2168;916.2313;;;;
2021/02/01 08:19:47;;;;;;;4.6;2.4;;;;;;;3.95;90.05078;916.2715;;;;
2021/02/01 08:22:12;;;;;;;3;1.7;;;;;;;4.09;89.78711;916.1778;;;;
2021/02/01 08:24:37;;;;;;;4.1;2.3;;;;;;;4.28;89.61523;916.2146;;;;
2021/02/01 08:27:02;;;;;;;2.1;1.7;;;;;;;4.4;88.7627;916.2397;;;;
2021/02/01 08:29:28;;;;;;;3.3;2.2;;;;;;;4.61;87.93652;916.1124;;;;
2021/02/01 08:31:53;;;;;;;3;2;;;;;;;4.71;87.35059;916.2111;;;;
2021/02/01 08:34:18;;;;;;;2.5;1.5;;;;;;;4.76;87.28125;916.155;;;;
2021/02/01 08:36:43;;;;;;;1.9;1.2;;;;;;;4.93;86.17773;916.2332;;;;
2021/02/01 08:39:11;;;;;;;3.4;1.9;;;;;;;5.19;85.50879;916.1822;;;;
2021/02/01 08:41:36;;;;;;;9;2.3;;;;;;;5.34;84.46777;916.183;;;;
2021/02/01 08:44:02;;;;;;;7.3;2.2;;;;;;;;;;;;;
2021/02/01 08:46:27;;;;;;;4.7;1.9;;;;;;;;;;;;;
2021/02/01 08:48:52;;;;;;;3.6;2;;;;;;;;;;;;;
2021/02/01 08:51:18;;;;;;;1.8;1.1;;;;;;;;;;;;;
2021/02/01 08:53:43;;;;;;;5.9;2.8;;;;;;;;;;;;;
2021/02/01 08:56:09;;;;;;;5.9;3.2;;;;;;;;;;;;;
2021/02/01 08:58:34;;;;;;;7.2;3.1;;;;;;;;;;;;;
2021/02/01 09:01:00;;;;;;;7.4;3.4;;;;;;;;;;;;;
2021/02/01 09:03:25;;;;;;;6;2.6;;;;;;;;;;;;;
2021/02/01 09:05:50;;;;;;;3.8;2;;;;;;;;;;;;;
2021/02/01 09:08:15;;;;;;;4.3;2.5;;;;;;;;;;;;;
2021/02/01 09:10:42;;;;;;;5.8;3.4;;;;;;;;;;;;;
2021/02/01 09:13:07;;;;;;;7.6;3.8;;;;;;;;;;;;;
2021/02/01 09:15:37;;;;;;;8.1;3.7;;;;;;;;;;;;;
2021/02/01 09:18:06;;;;;;;5.1;2.7;;;;;;;;;;;;;
2021/02/01 09:20:34;;;;;;;4.7;3;;;;;;;;;;;;;
2021/02/01 09:22:59;;;;;;;4;2.7;;;;;;;;;;;;;
2021/02/01 09:25:24;;;;;;;4.1;2.4;;;;;;;;;;;;;
2021/02/01 09:27:50;;;;;;;9.7;2.9;;;;;;;;;;;;;
2021/02/01 09:30:15;;;;;;;4;1.8;;;;;;;;;;;;;
2021/02/01 09:32:40;;;;;;;2.3;1.6;;;;;;;;;;;;;
2021/02/01 09:35:05;;;;;;;3.6;2.4;;;;;;;;;;;;;
2021/02/01 09:37:33;;;;;;;2.4;1.7;;;;;;;;;;;;;
2021/02/01 09:39:58;;;;;;;2.9;1.9;;;;;;;;;;;;;
2021/02/01 09:42:28;;;;;;;1.6;1.1;;;;;;;;;;;;;
2021/02/01 09:44:49;;;;;;;2.9;1.3;;;;;;;;;;;;;
2021/02/01 09:47:14;;;;;;;1.6;1;;;;;;;;;;;;;
2021/02/01 09:49:39;;;;;;;0.8;0.5;;;;;;;;;;;;;
2021/02/01 09:52:04;;;;;;;1.8;1.2;;;;;;;;;;;;;
2021/02/01 09:54:29;;;;;;;1.2;0.8;;;;;;;;;;;;;
2021/02/01 09:56:55;;;;;;;3.1;1.1;;;;;;;;;;;;;
2021/02/01 09:59:20;;;;;;;0.7;0.5;;;;;;;;;;;;;
2021/02/01 10:01:45;;;;;;;0.8;0.2;;;;;;;;;;;;;
2021/02/01 10:04:10;;;;;;;0.8;0.7;;;;;;;;;;;;;
2021/02/01 10:06:36;;;;;;;1.1;0.9;;;;;;;;;;;;;
2021/02/01 10:09:03;;;;;;;0.3;0.3;;;;;;;;;;;;;
2021/02/01 10:11:27;;;;;;;0.9;0.8;;;;;;;;;;;;;
2021/02/01 10:13:52;;;;;;;0.6;0.6;;;;;;;;;;;;;
2021/02/01 10:16:20;;;;;;;1.7;1.1;;;;;;;;;;;;;
2021/02/01 10:18:44;;;;;;;3.3;1.5;;;;;;;;;;;;;
2021/02/01 10:21:10;;;;;;;5.6;2.8;;;;;;;;;;;;;
2021/02/01 10:23:35;;;;;;;1.9;1.7;;;;;;;;;;;;;
2021/02/01 10:26:03;;;;;;;2.9;1.8;;;;;;;;;;;;;
2021/02/01 10:28:27;;;;;;;1.7;1.6;;;;;;;;;;;;;
2021/02/01 10:30:52;;;;;;;4.3;2;;;;;;;;;;;;;
2021/02/01 10:33:19;;;;;;;2.8;1.3;;;;;;;;;;;;;
2021/02/01 10:35:44;;;;;;;1.8;1.2;;;;;;;;;;;;;
2021/02/01 10:38:08;;;;;;;3;1.8;;;;;;;;;;;;;
2021/02/01 10:40:33;;;;;;;4;1.6;;;;;;;;;;;;;
2021/02/01 10:42:58;;;;;;;3.5;2.1;;;;;;;;;;;;;
2021/02/01 10:45:24;;;;;;;1.2;1.1;;;;;;;;;;;;;
2021/02/01 10:47:49;;;;;;;2;1.6;;;;;;;;;;;;;
2021/02/01 10:50:14;;;;;;;2.1;1.6;;;;;;;;;;;;;
2021/02/01 10:52:39;;;;;;;3.1;1.4;;;;;;;;;;;;;
2021/02/01 10:55:07;;;;;;;1.7;1.3;;;;;;;;;;;;;
2021/02/01 10:57:32;;;;;;;0.8;0.7;;;;;;;;;;;;;
2021/02/01 10:59:57;;;;;;;2.1;0.5;;;;;;;;;;;;;
2021/02/01 11:02:22;;;;;;;1;0.7;;;;;;;;;;;;;
2021/02/01 11:04:47;;;;;;;0.6;0.5;;;;;;;;;;;;;
2021/02/01 11:07:13;;;;;;;1.6;0.6;;;;;;;;;;;;;
2021/02/01 11:09:38;;;;;;;1.2;1;;;;;;;;;;;;;
2021/02/01 11:12:04;;;;;;;0.5;0.5;;;;;;;;;;;;;
2021/02/01 11:14:31;;;;;;;1.1;0.7;;;;;;;;;;;;;
2021/02/01 11:16:55;;;;;;;0.4;0.4;;;;;;;;;;;;;
2021/02/01 11:19:21;;;;;;;0.2;0.2;;;;;;;;;;;;;
2021/02/01 11:21:47;;;;;;;1.4;0.8;;;;;;;;;;;;;
2021/02/01 11:24:14;;;;;;;1.1;0.5;;;;;;;;;;;;;
2021/02/01 11:26:39;;;;;;;0.7;0.5;;;;;;;;;;;;;
2021/02/01 11:29:05;;;;;;;0.9;0.4;;;;;;;;;;;;;
2021/02/01 11:31:30;;;;;;;0.4;0.4;;;;;;;;;;;;;
2021/02/01 11:33:57;;;;;;;0.5;0.5;;;;;;;;;;;;;
2021/02/01 11:36:23;;;;;;;4.8;3.2;;;;;;;;;;;;;
2021/02/01 11:38:50;;;;;;;0.7;0.6;;;;;;;;;;;;;
2021/02/01 11:41:15;;;;;;;2.1;0.9;;;;;;;;;;;;;
2021/02/01 11:43:41;;;;;;;0.7;0.5;;;;;;;;;;;;;
2021/02/01 11:46:06;;;;;;;0.6;0.4;;;;;;;;;;;;;
2021/02/01 11:48:33;;;;;;;1.8;1.1;;;;;;;;;;;;;
2021/02/01 11:50:58;;;;;;;0.9;0.8;;;;;;;;;;;;;
2021/02/01 11:53:24;;;;;;;1.3;0.8;;;;;;;;;;;;;
2021/02/01 11:55:49;;;;;;;1.8;1;;;;;;;;;;;;;
2021/02/01 11:58:14;;;;;;;0.6;0.6;;;;;;;;;;;;;
2021/02/01 12:00:39;;;;;;;1.6;1.1;;;;;;;;;;;;;
2021/02/01 12:03:05;;;;;;;2.3;1.5;;;;;;;;;;;;;
2021/02/01 12:05:30;;;;;;;2.5;1;;;;;;;;;;;;;
2021/02/01 12:07:56;;;;;;;5.4;1.2;;;;;;;;;;;;;
2021/02/01 12:10:22;;;;;;;3;1.7;;;;;;;;;;;;;
2021/02/01 12:12:49;;;;;;;3.5;1.6;;;;;;;;;;;;;
2021/02/01 12:15:14;;;;;;;1.3;1.2;;;;;;;;;;;;;
2021/02/01 12:17:40;;;;;;;2.7;1.3;;;;;;;;;;;;;
2021/02/01 12:20:05;;;;;;;2.4;1;;;;;;;;;;;;;
2021/02/01 12:22:32;;;;;;;1.5;1.2;;;;;;;;;;;;;
2021/02/01 12:24:57;;;;;;;1.5;1.3;;;;;;;;;;;;;
2021/02/01 12:27:23;;;;;;;0.7;0.6;;;;;;;;;;;;;
2021/02/01 12:29:48;;;;;;;1.5;1;;;;;;;;;;;;;
2021/02/01 12:32:17;;;;;;;2.6;1.1;;;;;;;;;;;;;
2021/02/01 12:34:42;;;;;;;0.8;0.7;;;;;;;;;;;;;
2021/02/01 12:37:09;;;;;;;3.6;1.1;;;;;;;;;;;;;
2021/02/01 12:39:34;;;;;;;0.4;0.4;;;;;;;;;;;;;
2021/02/01 12:41:59;;;;;;;1.1;0.6;;;;;;;;;;;;;
2021/02/01 12:44:25;;;;;;;1.5;0.7;;;;;;;;;;;;;
2021/02/01 12:46:50;;;;;;;3.1;1.1;;;;;;;;;;;;;
2021/02/01 12:49:15;;;;;;;1.2;0.9;;;;;;;;;;;;;
2021/02/01 12:51:40;;;;;;;0.8;0.7;;;;;;;;;;;;;
2021/02/01 12:54:05;;;;;;;0.8;0.8;;;;;;;;;;;;;
2021/02/01 12:56:31;;;;;;;2.4;1.5;;;;;;;;;;;;;
2021/02/01 12:58:57;;;;;;;3;1;;;;;;;;;;;;;
2021/02/01 13:01:22;;;;;;;1.5;0.8;;;;;;;;;;;;;
2021/02/01 13:03:48;;;;;;;1.2;0.7;;;;;;;;;;;;;
2021/02/01 13:06:14;;;;;;;0.8;0.7;;;;;;;;;;;;;
2021/02/01 13:08:39;;;;;;;1.1;0.6;;;;;;;;;;;;;
2021/02/01 13:11:06;;;;;;;1.4;0.8;;;;;;;;;;;;;
2021/02/01 13:13:31;;;;;;;1;0.6;;;;;;;;;;;;;
2021/02/01 13:15:58;;;;;;;0.5;0.3;;;;;;;;;;;;;
2021/02/01 13:18:23;;;;;;;0.3;0.3;;;;;;;;;;;;;
2021/02/01 13:20:52;;;;;;;0.3;0.3;;;;;;;;;;;;;
2021/02/01 13:23:21;;;;;;;0.3;0.3;;;;;;;;;;;;;
2021/02/01 13:25:46;;;;;;;3;0.6;;;;;;;;;;;;;
2021/02/01 13:28:11;;;;;;;1.7;0.6;;;;;;;;;;;;;
2021/02/01 13:30:37;;;;;;;0.7;0.3;;;;;;;;;;;;;
2021/02/01 13:33:02;;;;;;;0.1;0.1;;;;;;;;;;;;;
2021/02/01 13:35:28;;;;;;;0.1;0.1;;;;;;;;;;;;;
2021/02/01 13:37:54;;;;;;;0.2;0.2;;;;;;;;;;;;;
2021/02/01 13:40:19;;;;;;;0.1;0.1;;;;;;;;;;;;;
2021/02/01 13:42:47;;;;;;;0.7;0.5;;;;;;;;;;;;;
2021/02/01 13:45:12;;;;;;;0.2;0.1;;;;;;;;;;;;;
2021/02/01 13:47:37;;;;;;;0.1;0.1;;;;;;;;;;;;;
2021/02/01 13:50:03;;;;;;;0.2;0.2;;;;;;;;;;;;;
2021/02/01 13:52:28;;;;;;;0.1;0.1;;;;;;;;;;;;;
2021/02/01 13:54:54;;;;;;;0.2;0.2;;;;;;;;;;;;;
2021/02/01 13:57:20;;;;;;;1;0.5;;;;;;;;;;;;;
2021/02/01 13:59:46;;;;;;;0.7;0.4;;;;;;;;;;;;;
2021/02/01 14:02:10;;;;;;;1.2;1.1;;;;;;;;;;;;;
2021/02/01 14:04:35;;;;;;;0.2;0.2;;;;;;;;;;;;;
2021/02/01 14:07:02;;;;;;;0.3;0.3;;;;;;;;;;;;;
2021/02/01 14:09:26;;;;;;;0.4;0.3;;;;;;;;;;;;;
2021/02/01 14:11:54;;;;;;;0.4;0.4;;;;;;;;;;;;;
2021/02/01 14:14:19;;;;;;;0.6;0.4;;;;;;;;;;;;;
2021/02/01 14:16:47;;;;;;;0.4;0.4;;;;;;;;;;;;;
2021/02/01 14:19:11;;;;;;;0.4;0.4;;;;;;;;;;;;;
2021/02/01 14:21:39;;;;;;;0.7;0.6;;;;;;;;;;;;;
2021/02/01 14:24:05;;;;;;;1.5;0.8;;;;;;;;;;;;;
2021/02/01 14:26:30;;;;;;;4.8;0.8;;;;;;;;;;;;;
2021/02/01 14:28:55;;;;;;;1;0.9;;;;;;;;;;;;;
2021/02/01 14:31:21;;;;;;;1.5;0.7;;;;;;;;;;;;;
2021/02/01 14:33:46;;;;;;;0.4;0.4;;;;;;;;;;;;;
2021/02/01 14:36:13;;;;;;;1.2;1.1;;;;;;;;;;;;;
2021/02/01 14:38:39;;;;;;;2.5;2;;;;;;;;;;;;;
2021/02/01 14:41:05;;;;;;;1.6;1.2;;;;;;;;;;;;;
2021/02/01 14:43:30;;;;;;;1.6;1.2;;;;;;;;;;;;;
2021/02/01 14:45:55;;;;;;;2.1;0.9;;;;;;;;;;;;;
2021/02/01 14:48:21;;;;;;;2.2;1.6;;;;;;;;;;;;;
2021/02/01 14:50:46;;;;;;;3.5;2;;;;;;;;;;;;;
2021/02/01 14:53:13;;;;;;;1;0.8;;;;;;;;;;;;;
2021/02/01 14:55:38;;;;;;;2;1.3;;;;;;;;;;;;;
2021/02/01 14:58:04;;;;;;;0.9;0.8;;;;;;;;;;;;;
2021/02/01 15:00:29;;;;;;;0.9;0.8;;;;;;;;;;;;;
2021/02/01 15:02:55;;;;;;;0.3;0.3;;;;;;;;;;;;;
2021/02/01 15:05:20;;;;;;;0.3;0.3;;;;;;;;;;;;;
2021/02/01 15:07:46;;;;;;;0.3;0.3;;;;;;;;;;;;;
2021/02/01 15:10:11;;;;;;;0.5;0.4;;;;;;;;;;;;;
2021/02/01 15:12:36;;;;;;;0.5;0.5;;;;;;;;;;;;;
2021/02/01 15:15:01;;;;;;;12.7;1.8;;;;;;;;;;;;;
2021/02/01 15:17:26;;;;;;;8.9;2.3;;;;;;;;;;;;;
2021/02/01 15:19:51;;;;;;;3.9;1.8;;;;;;;;;;;;;
2021/02/01 15:22:16;;;;;;;4.5;2.2;;;;;;;;;;;;;
2021/02/01 15:24:47;;;;;;;5.6;3;;;;;;;;;;;;;
2021/02/01 15:27:12;;;;;;;8.9;2.6;;;;;;;;;;;;;
2021/02/01 15:29:40;;;;;;;1.4;1.1;;;;;;;;;;;;;
2021/02/01 15:32:06;;;;;;;1.2;0.9;;;;;;;;;;;;;
2021/02/01 15:34:34;;;;;;;1.3;1.2;;;;;;;;;;;;;
2021/02/01 15:36:59;;;;;;;1.3;1;;;;;;;;;;;;;
2021/02/01 15:39:25;;;;;;;2.1;1.5;;;;;;;;;;;;;
2021/02/01 15:41:51;;;;;;;2.9;1.7;;;;;;;;;;;;;
2021/02/01 15:44:17;;;;;;;4.4;2.4;;;;;;;;;;;;;
2021/02/01 15:46:42;;;;;;;5;2.7;;;;;;;;;;;;;
2021/02/01 15:49:08;;;;;;;11.9;3.8;;;;;;;;;;;;;
2021/02/01 15:51:33;;;;;;;13.8;3;;;;;;;;;;;;;
2021/02/01 15:53:59;;;;;;;5.3;2.7;;;;;;;;;;;;;
2021/02/01 15:56:27;;;;;;;3;2.1;;;;;;;;;;;;;
2021/02/01 15:58:49;;;;;;;2.4;1.2;;;;;;;;;;;;;
2021/02/01 16:01:15;;;;;;;1.3;0.9;;;;;;;;;;;;;
2021/02/01 16:03:40;;;;;;;2.9;1.6;;;;;;;;;;;;;
2021/02/01 16:06:05;;;;;;;1.7;1.1;;;;;;;;;;;;;
2021/02/01 16:08:31;;;;;;;2.1;1.4;;;;;;;;;;;;;
2021/02/01 16:10:57;;;;;;;2.3;1.1;;;;;;;;;;;;;
2021/02/01 16:13:22;;;;;;;0.8;0.8;;;;;;;;;;;;;
2021/02/01 16:15:50;;;;;;;3.5;2;;;;;;;;;;;;;
2021/02/01 16:18:15;;;;;;;2.7;1.2;;;;;;;;;;;;;
2021/02/01 16:20:47;;;;;;;1.1;1;;;;;;;;;;;;;
2021/02/01 16:23:08;;;;;;;3.2;0.8;;;;;;;;;;;;;
2021/02/01 16:25:33;;;;;;;2.7;1.7;;;;;;;;;;;;;
2021/02/01 16:27:59;;;;;;;1.6;1.1;;;;;;;;;;;;;
2021/02/01 16:30:25;;;;;;;10.6;2.6;;;;;;;;;;;;;
2021/02/01 16:32:50;;;;;;;6.2;3;;;;;;;;;;;;;
2021/02/01 16:35:16;;;;;;;4.3;3;;;;;;;;;;;;;
2021/02/01 16:37:41;;;;;;;9.6;5.6;;;;;;;;;;;;;
2021/02/01 16:40:06;;;;;;;6.6;3.6;;;;;;;;;;;;;
2021/02/01 16:42:33;;;;;;;7.2;3.6;;;;;;;;;;;;;
2021/02/01 16:44:57;;;;;;;6;3.9;;;;;;;;;;;;;
2021/02/01 16:47:23;;;;;;;8.1;4.5;;;;;;;;;;;;;
2021/02/01 16:49:49;;;;;;;9.6;3.8;;;;;;;;;;;;;
2021/02/01 16:52:14;;;;;;;11.1;4.9;;;;;;;;;;;;;
2021/02/01 16:54:39;;;;;;;6.3;3.5;;;;;;;;;;;;;
2021/02/01 16:57:04;;;;;;;12.6;6;;;;;;;;;;;;;
2021/02/01 16:59:31;;;;;;;12;5.9;;;;;;;;;;;;;
2021/02/01 17:01:57;;;;;;;9.2;5.9;;;;;;;;;;;;;
2021/02/01 17:04:23;;;;;;;10.4;5.5;;;;;;;;;;;;;
2021/02/01 17:06:48;;;;;;;13.2;5.7;;;;;;;;;;;;;
2021/02/01 17:09:14;;;;;;;10.1;6;;;;;;;;;;;;;
2021/02/01 17:11:39;;;;;;;13.3;7.4;;;;;;;;;;;;;
2021/02/01 17:14:06;;;;;;;9.5;5.4;;;;;;;;;;;;;
2021/02/01 17:16:31;;;;;;;8.2;4.7;;;;;;;;;;;;;
2021/02/01 17:18:58;;;;;;;6.8;4.2;;;;;;;;;;;;;
2021/02/01 17:21:23;;;;;;;7.8;4.6;;;;;;;;;;;;;
2021/02/01 17:23:48;;;;;;;8.3;4.2;;;;;;;;;;;;;
2021/02/01 17:26:13;;;;;;;8.1;3.6;;;;;;;;;;;;;
2021/02/01 17:28:40;;;;;;;13.8;6.6;;;;;;;;;;;;;
2021/02/01 17:31:05;;;;;;;13.6;6.4;;;;;;;;;;;;;
2021/02/01 17:33:33;;;;;;;7.8;5.1;;;;;;;;;;;;;
2021/02/01 17:35:58;;;;;;;9.6;4.4;;;;;;;;;;;;;
2021/02/01 17:38:24;;;;;;;8.9;4.1;;;;;;;;;;;;;
2021/02/01 17:40:49;;;;;;;5.4;3.5;;;;;;;;;;;;;
2021/02/01 17:43:15;;;;;;;7.6;3.2;;;;;;;;;;;;;
2021/02/01 17:45:40;;;;;;;2.4;1.9;;;;;;;;;;;;;
2021/02/01 17:48:08;;;;;;;2.6;1.9;;;;;;;;;;;;;
2021/02/01 17:50:34;;;;;;;10.3;4;;;;;;;;;;;;;
2021/02/01 17:52:59;;;;;;;11.8;5.1;;;;;;;;;;;;;
2021/02/01 17:55:24;;;;;;;14.9;7.1;;;;;;;;;;;;;
2021/02/01 17:57:50;;;;;;;20.4;7.5;;;;;;;;;;;;;
2021/02/01 18:00:15;;;;;;;15.4;7.7;;;;;;;;;;;;;
2021/02/01 18:02:40;;;;;;;30.2;13.3;;;;;;;;;;;;;
2021/02/01 18:05:06;;;;;;;35.1;16.6;;;;;;;;;;;;;
2021/02/01 18:07:32;;;;;;;31.6;17.5;;;;;;;;;;;;;
2021/02/01 18:09:57;;;;;;;20;10.7;;;;;;;;;;;;;
2021/02/01 18:12:24;;;;;;;16.1;8.7;;;;;;;;;;;;;
2021/02/01 18:14:49;;;;;;;10.9;7.1;;;;;;;;;;;;;
2021/02/01 18:17:18;;;;;;;11.1;6.9;;;;;;;;;;;;;
2021/02/01 18:19:43;;;;;;;16.5;8.2;;;;;;;;;;;;;
2021/02/01 18:22:11;;;;;;;16.7;8.2;;;;;;;;;;;;;
2021/02/01 18:24:36;;;;;;;20.3;9.7;;;;;;;;;;;;;
2021/02/01 18:27:01;;;;;;;16.9;9.7;;;;;;;;;;;;;
2021/02/01 18:29:26;;;;;;;16.7;9;;;;;;;;;;;;;
2021/02/01 18:31:53;;;;;;;16.8;9.6;;;;;;;;;;;;;
2021/02/01 18:34:19;;;;;;;20.6;9.9;;;;;;;;;;;;;
2021/02/01 18:36:45;;;;;;;20.4;11.2;;;;;;;;;;;;;
2021/02/01 18:39:10;;;;;;;18.6;11.4;;;;;;;;;;;;;
2021/02/01 18:41:35;;;;;;;21.4;8.9;;;;;;;;;;;;;
2021/02/01 18:44:01;;;;;;;12.1;7.8;;;;;;;;;;;;;